Six Lakes, Michigan
Current Conditions -  °F | °C
As of 4:11 PM on Friday 24 Oct 2014 (Local Time) from KAMN Reporting Station
Overcast Overcast  
Wind Chill: 61°   Ceiling: 3200
Heat Index: 61°   Visibility: 10mi
Dew Point: 49°   Wind: 6mph
Humidity: 66%   Direction: 250°WSW
Pressure: 29.96"   Gusts: NA
Location:  43.42°N, 85.15°W
Report Text: KAMN 242011Z AUTO 25005KT 10SM BKN032 OVC039 16/10 A2996 RMK AO2 T01590095
Loading
Personal Weather Stations






























Interactive Weather Map
Tropical Storm Tracking
New forecast layout! Learn more

10-Day Weather Forecast

Advertisements
Track Severe Weather on mobile